createdAt,value
2018-06-22T00:02:13.335Z,20.21
2018-06-22T00:04:42.291Z,20.19
2018-06-22T00:07:11.105Z,20.14
2018-06-22T00:09:39.713Z,20.15
2018-06-22T00:12:08.266Z,20.10
2018-06-22T00:14:36.873Z,20.06
2018-06-22T00:17:05.423Z,20.17
2018-06-22T00:19:33.948Z,20.12
2018-06-22T00:22:02.496Z,19.94
2018-06-22T00:24:31.053Z,19.59
2018-06-22T00:26:59.555Z,19.84
2018-06-22T00:29:28.263Z,19.88
2018-06-22T00:31:57.075Z,19.90
2018-06-22T00:34:25.918Z,19.92
2018-06-22T00:36:54.753Z,19.93
2018-06-22T00:39:23.426Z,19.96
2018-06-22T00:41:51.955Z,20.15
2018-06-22T00:44:20.919Z,20.02
2018-06-22T00:46:49.434Z,19.93
2018-06-22T00:49:18.156Z,19.84
2018-06-22T00:51:46.986Z,19.67
2018-06-22T00:54:17.121Z,19.51
2018-06-22T00:56:46.514Z,19.43
2018-06-22T00:59:15.353Z,19.44
2018-06-22T01:01:44.224Z,19.39
2018-06-22T01:04:13.083Z,19.35
2018-06-22T01:06:41.916Z,19.33
2018-06-22T01:09:12.313Z,19.31
2018-06-22T01:11:41.153Z,19.25
2018-06-22T01:14:10.019Z,19.22
2018-06-22T01:16:38.951Z,19.21
2018-06-22T01:19:08.281Z,19.22
2018-06-22T01:21:37.166Z,19.22
2018-06-22T01:24:06.477Z,19.23
2018-06-22T01:26:35.323Z,19.21
2018-06-22T01:29:10.066Z,19.19
2018-06-22T01:31:38.555Z,19.17
2018-06-22T01:34:07.096Z,19.21
2018-06-22T01:36:35.596Z,19.19
2018-06-22T01:39:06.608Z,19.12
2018-06-22T01:41:35.113Z,19.06
2018-06-22T01:44:03.693Z,19.13
2018-06-22T01:46:32.566Z,19.29
2018-06-22T01:49:01.295Z,19.15
2018-06-22T01:51:30.130Z,19.11
2018-06-22T01:53:58.975Z,19.08
2018-06-22T01:56:27.803Z,19.08
2018-06-22T01:58:56.630Z,19.07
2018-06-22T02:01:25.446Z,19.00
2018-06-22T02:03:54.640Z,18.94
2018-06-22T02:06:23.520Z,18.86
2018-06-22T02:08:52.361Z,18.84
2018-06-22T02:11:20.936Z,18.80
2018-06-22T02:13:49.770Z,18.81
2018-06-22T02:16:18.619Z,18.81
2018-06-22T02:18:47.328Z,18.79
2018-06-22T02:21:15.916Z,18.79
2018-06-22T02:23:44.466Z,18.77
2018-06-22T02:26:12.964Z,18.69
2018-06-22T02:28:41.690Z,18.54
2018-06-22T02:31:10.547Z,18.47
2018-06-22T02:33:39.377Z,18.45
2018-06-22T02:36:08.216Z,18.44
2018-06-22T02:38:36.816Z,18.44
2018-06-22T02:41:06.260Z,18.39
2018-06-22T02:43:35.347Z,18.51
2018-06-22T02:46:04.048Z,18.48
2018-06-22T02:48:32.615Z,18.41
2018-06-22T02:51:01.432Z,18.27
2018-06-22T02:53:30.044Z,18.33
2018-06-22T02:55:58.553Z,18.41
2018-06-22T02:58:27.113Z,18.43
2018-06-22T03:00:55.633Z,18.49
2018-06-22T03:03:24.173Z,18.55
2018-06-22T03:05:52.671Z,18.61
2018-06-22T03:08:21.242Z,18.62
2018-06-22T03:10:49.801Z,18.63
2018-06-22T03:13:18.617Z,18.65
2018-06-22T03:15:47.301Z,18.50
2018-06-22T03:18:15.820Z,18.45
2018-06-22T03:20:44.551Z,18.42
2018-06-22T03:23:13.383Z,18.38
2018-06-22T03:25:42.296Z,18.43
2018-06-22T03:28:11.112Z,18.44
2018-06-22T03:30:39.935Z,18.50
2018-06-22T03:33:08.788Z,18.46
2018-06-22T03:35:37.630Z,18.42
2018-06-22T03:38:07.305Z,18.43
2018-06-22T03:40:36.150Z,18.41
2018-06-22T03:43:05.495Z,18.39
2018-06-22T03:45:34.353Z,18.42
2018-06-22T03:48:03.221Z,18.41
2018-06-22T03:50:31.898Z,18.40
2018-06-22T03:53:00.508Z,18.41
2018-06-22T03:55:29.270Z,18.48
2018-06-22T03:57:57.870Z,18.42
2018-06-22T04:00:26.531Z,18.40
2018-06-22T04:02:55.127Z,18.51
2018-06-22T04:05:23.701Z,18.41
2018-06-22T04:07:52.201Z,18.44
2018-06-22T04:10:21.035Z,18.46
2018-06-22T04:12:49.887Z,18.47
2018-06-22T04:15:18.686Z,18.56
2018-06-22T04:17:50.203Z,18.71
2018-06-22T04:20:20.008Z,18.87
2018-06-22T04:22:48.906Z,19.07
2018-06-22T04:25:18.421Z,19.11
2018-06-22T04:27:47.115Z,19.09
2018-06-22T04:30:15.978Z,19.13
2018-06-22T04:32:44.883Z,19.16
2018-06-22T04:35:13.525Z,19.08
2018-06-22T04:37:42.056Z,19.17
2018-06-22T04:40:10.838Z,19.28
2018-06-22T04:42:39.720Z,19.31
2018-06-22T04:45:08.578Z,19.71
2018-06-22T04:47:37.420Z,19.95
2018-06-22T04:50:06.320Z,20.08
2018-06-22T04:52:35.203Z,20.33
2018-06-22T04:55:04.047Z,20.45
2018-06-22T04:57:33.028Z,20.61
2018-06-22T05:00:01.643Z,20.65
2018-06-22T05:02:30.196Z,20.86
2018-06-22T05:04:58.755Z,20.91
2018-06-22T05:07:27.089Z,20.71
2018-06-22T05:09:55.871Z,20.48
2018-06-22T05:12:24.750Z,20.30
2018-06-22T05:14:53.663Z,20.40
2018-06-22T05:17:22.583Z,20.68
2018-06-22T05:19:51.244Z,20.98
2018-06-22T05:22:19.811Z,21.21
2018-06-22T05:24:48.390Z,21.48
2018-06-22T05:27:16.881Z,21.68
2018-06-22T05:29:45.436Z,22.08
2018-06-22T05:32:14.621Z,22.12
2018-06-22T05:34:43.182Z,22.31
2018-06-22T05:37:11.724Z,22.48
2018-06-22T05:39:40.303Z,22.50
2018-06-22T05:42:09.128Z,22.53
2018-06-22T05:44:37.715Z,22.50
2018-06-22T05:47:06.258Z,22.70
2018-06-22T05:49:34.926Z,22.71
2018-06-22T05:52:03.583Z,23.06
2018-06-22T05:54:32.238Z,23.03
2018-06-22T05:57:00.668Z,23.23
2018-06-22T05:59:29.150Z,23.15
2018-06-22T06:01:57.722Z,23.03
2018-06-22T06:04:26.328Z,22.91
2018-06-22T06:06:54.937Z,22.94
2018-06-22T06:09:23.753Z,23.09
2018-06-22T06:11:52.973Z,23.13
2018-06-22T06:14:21.893Z,23.34
2018-06-22T06:16:50.817Z,23.00
2018-06-22T06:19:19.813Z,22.80
2018-06-22T06:21:48.713Z,22.72
2018-06-22T06:24:17.595Z,22.98
2018-06-22T06:26:46.460Z,23.14
2018-06-22T06:29:15.402Z,22.90
2018-06-22T06:31:44.352Z,22.95
2018-06-22T06:34:13.291Z,22.97
2018-06-22T06:36:42.298Z,23.04
2018-06-22T06:39:11.037Z,22.89
2018-06-22T06:41:39.723Z,22.90
2018-06-22T06:44:08.437Z,23.05
2018-06-22T06:46:36.936Z,23.27
2018-06-22T06:49:05.556Z,23.43
2018-06-22T06:51:34.103Z,23.37
2018-06-22T06:54:02.979Z,23.57
2018-06-22T06:56:31.524Z,23.60
2018-06-22T06:59:00.284Z,23.63
2018-06-22T07:01:29.214Z,23.86
2018-06-22T07:03:58.216Z,24.26
2018-06-22T07:06:27.061Z,24.62
2018-06-22T07:08:55.892Z,24.70
2018-06-22T07:11:24.896Z,24.26
2018-06-22T07:13:53.758Z,24.03
2018-06-22T07:16:22.666Z,24.00
2018-06-22T07:18:51.533Z,24.23
2018-06-22T07:21:21.244Z,24.29
2018-06-22T07:23:50.209Z,24.83
2018-06-22T07:26:19.186Z,25.18
2018-06-22T07:28:48.034Z,25.39
2018-06-22T07:31:16.941Z,25.59
2018-06-22T07:33:46.193Z,25.30
2018-06-22T07:36:15.244Z,25.29
2018-06-22T07:38:43.976Z,25.34
2018-06-22T07:41:12.526Z,25.33
2018-06-22T07:43:42.063Z,25.40
2018-06-22T07:46:10.687Z,25.31
2018-06-22T07:48:39.496Z,25.38
2018-06-22T07:51:09.009Z,25.08
2018-06-22T07:53:38.352Z,24.93
2018-06-22T07:56:07.203Z,25.12
2018-06-22T07:58:36.149Z,25.38
2018-06-22T08:01:05.067Z,25.02
2018-06-22T08:03:33.896Z,25.14
2018-06-22T08:06:02.749Z,25.04
2018-06-22T08:08:31.672Z,25.36
2018-06-22T08:11:00.593Z,25.66
2018-06-22T08:13:30.356Z,25.60
2018-06-22T08:15:59.242Z,25.73
2018-06-22T08:18:28.182Z,26.26
2018-06-22T08:20:57.038Z,26.86
2018-06-22T08:23:25.951Z,26.76
2018-06-22T08:25:54.884Z,26.70
2018-06-22T08:28:23.814Z,26.69
2018-06-22T08:30:52.771Z,26.66
2018-06-22T08:33:21.646Z,26.54
2018-06-22T08:35:50.548Z,26.28
2018-06-22T08:38:19.396Z,25.76
2018-06-22T08:40:48.444Z,25.66
2018-06-22T08:43:17.281Z,25.69
2018-06-22T08:45:46.263Z,25.65
2018-06-22T08:48:14.893Z,25.88
2018-06-22T08:50:43.539Z,25.80
2018-06-22T08:53:13.041Z,25.99
2018-06-22T08:55:41.666Z,25.96
2018-06-22T08:58:10.465Z,26.35
2018-06-22T09:00:39.369Z,26.24
2018-06-22T09:03:09.308Z,26.40
2018-06-22T09:05:38.311Z,26.49
2018-06-22T09:08:13.036Z,26.70
2018-06-22T09:10:43.858Z,26.99
2018-06-22T09:13:13.007Z,27.03
2018-06-22T09:15:42.024Z,27.32
2018-06-22T09:18:11.119Z,27.59
2018-06-22T09:20:40.114Z,28.29
2018-06-22T09:23:09.244Z,28.60
2018-06-22T09:25:38.193Z,28.72
2018-06-22T09:28:06.835Z,28.42
2018-06-22T09:30:36.476Z,28.44
2018-06-22T09:33:05.114Z,27.90
2018-06-22T09:35:33.728Z,27.87
2018-06-22T09:38:02.403Z,27.93
2018-06-22T09:40:31.055Z,28.12
2018-06-22T09:42:59.714Z,28.22
2018-06-22T09:45:28.377Z,28.13
2018-06-22T09:47:57.376Z,28.03
2018-06-22T09:50:26.324Z,27.79
2018-06-22T09:52:55.300Z,28.12
2018-06-22T09:55:24.264Z,28.19
2018-06-22T09:57:53.041Z,28.75
2018-06-22T10:00:21.691Z,28.99
2018-06-22T10:02:50.425Z,29.12
2018-06-22T10:05:19.055Z,28.23
2018-06-22T10:07:47.671Z,28.33
2018-06-22T10:10:16.200Z,28.12
2018-06-22T10:12:44.863Z,27.92
2018-06-22T10:15:13.448Z,28.19
2018-06-22T10:17:42.318Z,28.10
2018-06-22T10:20:11.158Z,28.82
2018-06-22T10:22:40.168Z,28.68
2018-06-22T10:25:09.146Z,28.98
2018-06-22T10:27:38.556Z,28.92
2018-06-22T10:30:07.128Z,28.44
2018-06-22T10:32:35.703Z,28.94
2018-06-22T10:35:04.398Z,29.09
2018-06-22T10:37:33.044Z,28.71
2018-06-22T10:40:01.712Z,28.40
2018-06-22T10:42:30.295Z,28.04
2018-06-22T10:44:58.923Z,27.92
2018-06-22T10:47:27.888Z,27.86
2018-06-22T10:49:57.051Z,28.72
2018-06-22T10:52:26.036Z,29.16
2018-06-22T10:54:55.175Z,29.55
2018-06-22T10:57:24.031Z,29.85
2018-06-22T10:59:53.014Z,29.66
2018-06-22T11:02:21.643Z,29.71
2018-06-22T11:04:50.281Z,29.43
2018-06-22T11:07:19.334Z,29.42
2018-06-22T11:09:48.361Z,29.09
2018-06-22T11:12:17.276Z,29.38
2018-06-22T11:14:46.164Z,29.38
2018-06-22T11:17:15.104Z,28.80
2018-06-22T11:19:44.078Z,28.95
2018-06-22T11:22:12.949Z,28.49
2018-06-22T11:24:42.041Z,28.13
2018-06-22T11:27:10.931Z,28.48
2018-06-22T11:29:39.664Z,28.54
2018-06-22T11:32:08.623Z,28.58
2018-06-22T11:34:37.429Z,29.26
2018-06-22T11:37:06.556Z,29.18
2018-06-22T11:39:35.263Z,29.40
2018-06-22T11:42:04.031Z,28.83
2018-06-22T11:44:32.616Z,28.99
2018-06-22T11:47:01.896Z,29.21
2018-06-22T11:49:31.185Z,29.10
2018-06-22T11:52:00.344Z,29.37
2018-06-22T11:54:29.343Z,29.35
2018-06-22T11:56:58.201Z,28.74
2018-06-22T11:59:27.284Z,29.59
2018-06-22T12:01:55.855Z,29.73
2018-06-22T12:04:24.571Z,29.64
2018-06-22T12:06:53.787Z,29.66
2018-06-22T12:09:22.826Z,29.92
2018-06-22T12:11:51.874Z,29.71
2018-06-22T12:14:20.895Z,29.87
2018-06-22T12:16:49.942Z,29.60
2018-06-22T12:19:19.131Z,30.02
2018-06-22T12:21:48.107Z,30.07
2018-06-22T12:24:17.046Z,30.49
2018-06-22T12:26:46.202Z,30.94
2018-06-22T12:29:15.723Z,31.35
2018-06-22T12:31:44.655Z,31.56
2018-06-22T12:34:13.604Z,32.46
2018-06-22T12:36:42.741Z,32.12
2018-06-22T12:39:13.033Z,31.46
2018-06-22T12:41:42.728Z,31.56
2018-06-22T12:44:11.365Z,31.82
2018-06-22T12:46:40.160Z,31.81
2018-06-22T12:49:08.993Z,31.54
2018-06-22T12:51:37.782Z,30.72
2018-06-22T12:54:06.665Z,31.43
2018-06-22T12:56:35.588Z,31.00
2018-06-22T12:59:04.636Z,31.30
2018-06-22T13:01:33.597Z,32.26
2018-06-22T13:04:02.577Z,32.30
2018-06-22T13:06:31.520Z,32.15
2018-06-22T13:09:00.269Z,31.14
2018-06-22T13:11:28.991Z,31.31
2018-06-22T13:13:57.621Z,30.86
2018-06-22T13:16:26.424Z,31.32
2018-06-22T13:18:55.496Z,31.22
2018-06-22T13:21:24.476Z,31.05
2018-06-22T13:23:53.429Z,31.16
2018-06-22T13:26:22.177Z,31.00
2018-06-22T13:28:51.157Z,32.42
2018-06-22T13:31:20.224Z,33.02
2018-06-22T13:33:48.846Z,32.32
2018-06-22T13:36:17.649Z,31.88
2018-06-22T13:38:46.536Z,31.69
2018-06-22T13:41:15.478Z,31.76
2018-06-22T13:43:44.197Z,32.09
2018-06-22T13:46:13.144Z,32.56
2018-06-22T13:48:42.096Z,31.42
2018-06-22T13:51:11.198Z,31.77
2018-06-22T13:53:40.194Z,32.13
2018-06-22T13:56:08.951Z,32.13
2018-06-22T13:58:37.733Z,32.10
2018-06-22T14:01:06.560Z,33.00
2018-06-22T14:03:39.766Z,32.20
2018-06-22T14:06:14.061Z,33.20
2018-06-22T14:08:42.739Z,33.00
2018-06-22T14:11:11.392Z,32.35
2018-06-22T14:13:39.984Z,31.92
2018-06-22T14:16:08.923Z,32.09
2018-06-22T14:18:37.896Z,32.12
2018-06-22T14:21:07.031Z,30.82
2018-06-22T14:23:36.077Z,30.19
2018-06-22T14:26:05.461Z,29.46
2018-06-22T14:28:34.473Z,28.94
2018-06-22T14:31:03.556Z,29.22
2018-06-22T14:33:32.547Z,30.02
2018-06-22T14:36:01.529Z,30.29
2018-06-22T14:38:30.653Z,30.67
2018-06-22T14:40:59.703Z,31.25
2018-06-22T14:43:28.425Z,31.97
2018-06-22T14:45:57.689Z,31.96
2018-06-22T14:48:26.785Z,32.22
2018-06-22T14:50:55.760Z,32.59
2018-06-22T14:53:30.280Z,33.17
2018-06-22T14:56:04.893Z,33.65
2018-06-22T14:58:39.204Z,33.73
2018-06-22T15:01:13.553Z,33.63
2018-06-22T15:03:47.734Z,33.51
2018-06-22T15:06:21.791Z,32.64
2018-06-22T15:08:50.516Z,31.88
2018-06-22T15:11:19.128Z,31.64
2018-06-22T15:13:49.189Z,31.25
2018-06-22T15:16:17.964Z,31.26
2018-06-22T15:18:47.236Z,31.10
2018-06-22T15:21:15.859Z,30.95
2018-06-22T15:23:44.456Z,30.68
2018-06-22T15:26:13.126Z,30.34
2018-06-22T15:28:42.036Z,30.18
2018-06-22T15:31:10.961Z,30.20
2018-06-22T15:33:45.376Z,30.87
2018-06-22T15:36:19.882Z,30.59
2018-06-22T15:38:54.531Z,30.13
2018-06-22T15:41:29.062Z,29.64
2018-06-22T15:44:03.568Z,29.53
2018-06-22T15:46:38.218Z,29.97
2018-06-22T15:49:12.547Z,29.95
2018-06-22T15:51:46.823Z,29.95
2018-06-22T15:54:22.359Z,30.61
2018-06-22T15:56:51.141Z,30.75
2018-06-22T15:59:20.212Z,30.88
2018-06-22T16:01:49.109Z,30.98
2018-06-22T16:04:18.083Z,31.01
2018-06-22T16:06:47.016Z,30.56
2018-06-22T16:09:15.761Z,30.21
2018-06-22T16:11:44.447Z,30.01
2018-06-22T16:14:18.520Z,29.20
2018-06-22T16:16:52.637Z,28.69
2018-06-22T16:19:28.120Z,28.44
2018-06-22T16:22:02.703Z,28.36
2018-06-22T16:24:37.203Z,28.29
2018-06-22T16:27:07.759Z,28.09
2018-06-22T16:29:36.793Z,28.88
2018-06-22T16:32:05.799Z,28.96
2018-06-22T16:34:34.751Z,28.84
2018-06-22T16:37:03.714Z,28.58
2018-06-22T16:39:32.685Z,28.49
2018-06-22T16:42:03.276Z,28.45
2018-06-22T16:44:32.195Z,28.48
2018-06-22T16:47:01.271Z,28.26
2018-06-22T16:49:30.333Z,27.99
2018-06-22T16:51:59.316Z,27.70
2018-06-22T16:54:28.237Z,27.52
2018-06-22T16:56:56.959Z,27.42
2018-06-22T16:59:26.034Z,27.46
2018-06-22T17:01:55.037Z,27.32
2018-06-22T17:04:23.982Z,27.26
2018-06-22T17:06:58.461Z,27.32
2018-06-22T17:09:33.001Z,27.26
2018-06-22T17:14:10.753Z,27.16
2018-06-22T17:16:45.123Z,27.35
2018-06-22T17:19:19.182Z,27.10
2018-06-22T17:21:48.061Z,26.96
2018-06-22T17:24:16.750Z,27.01
2018-06-22T17:26:45.834Z,27.04
2018-06-22T17:29:14.856Z,26.83
2018-06-22T17:31:43.576Z,26.75
2018-06-22T17:34:12.218Z,26.67
2018-06-22T17:36:41.008Z,27.05
2018-06-22T17:39:11.399Z,27.04
2018-06-22T17:41:40.301Z,26.85
2018-06-22T17:44:09.248Z,27.06
2018-06-22T17:46:38.279Z,26.91
2018-06-22T17:49:07.207Z,26.82
2018-06-22T17:51:36.124Z,26.75
2018-06-22T17:54:05.608Z,27.00
2018-06-22T17:56:34.164Z,26.82
2018-06-22T17:59:08.386Z,26.59
2018-06-22T18:01:42.793Z,26.48
2018-06-22T18:06:25.816Z,26.44
2018-06-22T18:08:54.799Z,26.49
2018-06-22T18:11:29.338Z,26.51
2018-06-22T18:13:58.242Z,26.57
2018-06-22T18:16:27.434Z,26.69
2018-06-22T18:18:56.439Z,26.44
2018-06-22T18:21:25.459Z,26.46
2018-06-22T18:23:54.427Z,26.36
2018-06-22T18:26:23.407Z,26.36
2018-06-22T18:28:52.368Z,26.36
2018-06-22T18:31:21.129Z,26.48
2018-06-22T18:33:49.904Z,26.29
2018-06-22T18:36:18.663Z,26.13
2018-06-22T18:38:47.304Z,26.03
2018-06-22T18:41:15.984Z,25.86
2018-06-22T18:43:50.301Z,25.75
2018-06-22T18:46:19.173Z,25.80
2018-06-22T18:48:47.876Z,25.69
2018-06-22T18:51:16.806Z,25.59
2018-06-22T18:53:51.117Z,25.54
2018-06-22T18:56:25.982Z,25.51
2018-06-22T18:59:01.292Z,25.57
2018-06-22T19:01:36.286Z,25.57
2018-06-22T19:04:05.024Z,25.53
2018-06-22T19:06:33.683Z,25.43
2018-06-22T19:09:02.364Z,25.39
2018-06-22T19:11:31.318Z,25.28
2018-06-22T19:14:00.229Z,25.08
2018-06-22T19:16:29.229Z,24.98
2018-06-22T19:18:58.261Z,24.82
2018-06-22T19:21:26.958Z,24.70
2018-06-22T19:23:55.585Z,24.67
2018-06-22T19:26:24.204Z,24.46
2018-06-22T19:28:52.833Z,24.37
2018-06-22T19:31:21.591Z,24.24
2018-06-22T19:33:50.064Z,24.18
2018-06-22T19:36:18.553Z,24.16
2018-06-22T19:38:47.120Z,24.22
2018-06-22T19:41:15.984Z,24.24
2018-06-22T19:43:50.403Z,24.10
2018-06-22T19:46:24.958Z,24.01
2018-06-22T19:49:00.147Z,24.03
2018-06-22T19:51:34.340Z,24.03
2018-06-22T19:54:05.495Z,24.10
2018-06-22T19:56:34.176Z,24.11
2018-06-22T19:59:03.015Z,24.04
2018-06-22T20:01:32.151Z,24.01
2018-06-22T20:04:01.198Z,23.94
2018-06-22T20:06:30.150Z,23.90
2018-06-22T20:08:59.146Z,23.84
2018-06-22T20:11:28.603Z,23.79
2018-06-22T20:13:57.548Z,23.75
2018-06-22T20:16:26.834Z,23.63
2018-06-22T20:18:56.010Z,23.68
2018-06-22T20:21:24.889Z,23.71
2018-06-22T20:23:53.345Z,23.73
2018-06-22T20:26:22.071Z,23.77
2018-06-22T20:28:50.732Z,23.97
2018-06-22T20:31:25.260Z,23.90
2018-06-22T20:33:54.336Z,23.86
2018-06-22T20:36:29.086Z,23.75
2018-06-22T20:39:03.529Z,23.68
2018-06-22T20:41:37.756Z,23.70
2018-06-22T20:44:12.061Z,23.71
2018-06-22T20:46:46.288Z,23.86
2018-06-22T20:49:20.696Z,23.75
2018-06-22T20:51:49.439Z,23.70
2018-06-22T20:54:18.124Z,23.78
2018-06-22T20:56:46.816Z,23.71
2018-06-22T20:59:15.514Z,23.71
2018-06-22T21:01:43.984Z,23.80
2018-06-22T21:04:12.789Z,23.71
2018-06-22T21:06:41.494Z,23.70
2018-06-22T21:09:10.679Z,23.92
2018-06-22T21:11:39.263Z,23.83
2018-06-22T21:14:08.358Z,23.68
2018-06-22T21:16:37.335Z,23.73
2018-06-22T21:19:06.320Z,23.74
2018-06-22T21:21:41.257Z,23.71
2018-06-22T21:24:09.858Z,23.53
2018-06-22T21:26:38.531Z,23.46
2018-06-22T21:29:12.789Z,23.56
2018-06-22T21:31:46.880Z,23.54
2018-06-22T21:34:21.001Z,23.53
2018-06-22T21:36:55.223Z,23.55
2018-06-22T21:39:23.866Z,23.55
2018-06-22T21:41:52.599Z,23.49
2018-06-22T21:44:21.666Z,23.39
2018-06-22T21:46:50.605Z,23.52
2018-06-22T21:49:19.514Z,23.28
2018-06-22T21:51:48.449Z,23.29
2018-06-22T21:54:17.331Z,23.11
2018-06-22T21:56:46.316Z,23.13
2018-06-22T21:59:15.183Z,23.12
2018-06-22T22:01:43.879Z,23.13
2018-06-22T22:04:12.476Z,23.06
2018-06-22T22:06:41.156Z,23.00
2018-06-22T22:09:10.159Z,22.93
2018-06-22T22:11:44.651Z,22.83
2018-06-22T22:14:13.498Z,22.79
2018-06-22T22:16:42.453Z,22.80
2018-06-22T22:19:11.080Z,22.80
2018-06-22T22:21:40.053Z,22.78
2018-06-22T22:24:09.026Z,22.75
2018-06-22T22:26:38.037Z,22.66
2018-06-22T22:29:07.800Z,22.65
2018-06-22T22:31:37.425Z,22.61
2018-06-22T22:34:06.393Z,22.73
2018-06-22T22:36:35.363Z,22.66
2018-06-22T22:39:07.202Z,22.63
2018-06-22T22:41:36.468Z,22.56
2018-06-22T22:44:05.646Z,22.40
2018-06-22T22:46:34.213Z,22.38
2018-06-22T22:49:03.106Z,22.38
2018-06-22T22:51:32.026Z,22.34
2018-06-22T22:54:00.760Z,22.28
2018-06-22T22:56:29.383Z,22.10
2018-06-22T22:58:58.278Z,22.23
2018-06-22T23:01:27.348Z,22.13
2018-06-22T23:03:55.936Z,22.11
2018-06-22T23:06:24.516Z,21.92
2018-06-22T23:08:53.108Z,21.80
2018-06-22T23:11:21.721Z,21.84
2018-06-22T23:13:50.355Z,21.72
2018-06-22T23:16:18.976Z,21.63
2018-06-22T23:18:47.551Z,21.56
2018-06-22T23:21:16.113Z,21.49
2018-06-22T23:23:44.848Z,21.42
2018-06-22T23:26:14.123Z,21.36
2018-06-22T23:28:42.788Z,21.25
2018-06-22T23:31:11.401Z,21.19
2018-06-22T23:33:40.015Z,21.09
2018-06-22T23:36:08.633Z,21.05
2018-06-22T23:38:37.317Z,21.08
2018-06-22T23:41:06.096Z,21.00
2018-06-22T23:43:35.088Z,20.96
2018-06-22T23:46:04.131Z,20.93
2018-06-22T23:48:32.724Z,20.97
2018-06-22T23:51:01.694Z,20.87
2018-06-22T23:53:30.613Z,20.81
2018-06-22T23:55:59.564Z,20.88
2018-06-22T23:58:28.451Z,20.80
